createdAt,value
2019-01-21T00:03:32.293Z,16.20
2019-01-21T00:07:40.425Z,14.47
2019-01-21T00:11:48.539Z,14.63
2019-01-21T00:15:56.665Z,15.57
2019-01-21T00:20:05.246Z,15.27
2019-01-21T00:24:13.384Z,13.10
2019-01-21T00:28:21.536Z,14.60
2019-01-21T00:32:29.719Z,13.00
2019-01-21T00:36:37.907Z,13.27
2019-01-21T00:40:45.994Z,12.13
2019-01-21T00:44:54.137Z,13.10
2019-01-21T00:49:02.273Z,11.70
2019-01-21T00:53:10.392Z,12.60
2019-01-21T00:57:18.522Z,12.90
2019-01-21T01:01:26.703Z,12.40
2019-01-21T01:05:34.829Z,12.37
2019-01-21T01:09:42.961Z,12.00
2019-01-21T01:13:51.093Z,12.80
2019-01-21T01:17:59.217Z,11.70
2019-01-21T01:22:07.353Z,13.83
2019-01-21T01:26:15.494Z,12.97
2019-01-21T01:30:23.632Z,11.80
2019-01-21T01:34:31.767Z,14.67
2019-01-21T01:38:39.917Z,12.97
2019-01-21T01:42:48.541Z,12.93
2019-01-21T01:46:56.729Z,14.37
2019-01-21T01:51:04.820Z,13.13
2019-01-21T01:55:12.963Z,13.20
2019-01-21T01:59:21.103Z,13.20
2019-01-21T02:03:29.237Z,13.50
2019-01-21T02:07:37.377Z,12.67
2019-01-21T02:11:45.528Z,13.27
2019-01-21T02:15:53.669Z,12.43
2019-01-21T02:20:01.809Z,12.17
2019-01-21T02:24:09.949Z,12.23
2019-01-21T02:28:32.261Z,12.33
2019-01-21T02:34:00.349Z,12.90
2019-01-21T02:38:22.590Z,11.20
2019-01-21T02:42:56.324Z,13.30
2019-01-21T02:48:13.277Z,16.23
2019-01-21T02:52:35.076Z,12.37
2019-01-21T02:56:52.192Z,10.77
2019-01-21T03:02:09.178Z,10.27
2019-01-21T03:06:26.263Z,12.37
2019-01-21T03:10:44.034Z,11.67
2019-01-21T03:15:10.441Z,10.73
2019-01-21T03:19:33.292Z,11.90
2019-01-21T03:23:50.394Z,11.70
2019-01-21T03:28:27.899Z,11.83
2019-01-21T03:32:45.020Z,11.37
2019-01-21T03:39:12.553Z,12.73
2019-01-21T03:44:30.686Z,12.67
2019-01-21T03:48:46.264Z,12.87
2019-01-21T03:53:04.258Z,16.43
2019-01-21T03:57:29.277Z,17.33
2019-01-21T04:01:57.986Z,16.33
2019-01-21T04:06:16.824Z,17.90
2019-01-21T04:12:38.361Z,15.07
2019-01-21T04:16:59.115Z,14.00
2019-01-21T04:21:24.989Z,15.80
2019-01-21T04:26:16.486Z,13.80
2019-01-21T04:30:36.961Z,16.00
2019-01-21T04:35:00.334Z,13.70
2019-01-21T04:39:20.303Z,12.77
2019-01-21T04:43:49.206Z,10.57
2019-01-21T04:48:11.980Z,12.07
2019-01-21T04:52:30.094Z,13.80
2019-01-21T04:56:50.343Z,11.20
2019-01-21T05:01:10.580Z,12.53
2019-01-21T05:05:34.599Z,10.40
2019-01-21T05:09:51.978Z,10.87
2019-01-21T05:14:13.205Z,10.17
2019-01-21T05:18:41.151Z,11.17
2019-01-21T05:22:56.287Z,11.60
2019-01-21T05:27:44.724Z,10.80
2019-01-21T05:33:16.358Z,9.37
2019-01-21T05:39:40.080Z,11.60
2019-01-21T05:45:06.893Z,10.50
2019-01-21T05:49:29.146Z,11.93
2019-01-21T05:53:54.589Z,9.53
2019-01-21T05:58:14.817Z,10.37
2019-01-21T06:02:41.111Z,12.07
2019-01-21T06:07:05.890Z,9.60
2019-01-21T06:11:22.465Z,9.67
2019-01-21T06:15:45.376Z,14.97
2019-01-21T06:20:04.807Z,12.30
2019-01-21T06:24:25.111Z,8.57
2019-01-21T06:28:52.378Z,9.90
2019-01-21T06:33:26.446Z,12.30
2019-01-21T06:37:59.482Z,14.73
2019-01-21T06:42:20.630Z,12.67
2019-01-21T06:46:47.019Z,15.20
2019-01-21T06:53:10.566Z,15.17
2019-01-21T06:58:12.209Z,23.27
2019-01-21T07:02:38.184Z,20.57
2019-01-21T07:06:56.338Z,27.43
2019-01-21T07:11:14.151Z,14.63
2019-01-21T07:15:46.798Z,15.80
2019-01-21T07:20:11.557Z,12.60
2019-01-21T07:26:31.920Z,9.40
2019-01-21T07:31:47.869Z,9.90
2019-01-21T07:36:11.048Z,9.13
2019-01-21T07:41:35.574Z,10.50
2019-01-21T07:45:59.022Z,14.90
2019-01-21T07:50:14.710Z,12.73
2019-01-21T07:54:36.034Z,13.33
2019-01-21T07:58:59.120Z,15.53
2019-01-21T08:04:19.897Z,14.27
2019-01-21T08:08:46.182Z,14.27
2019-01-21T08:14:03.977Z,13.30
2019-01-21T08:19:24.407Z,14.00
2019-01-21T08:25:45.481Z,11.87
2019-01-21T08:30:32.961Z,14.60
2019-01-21T08:34:59.222Z,15.30
2019-01-21T08:39:25.766Z,16.03
2019-01-21T08:46:26.066Z,13.83
2019-01-21T08:52:53.879Z,10.70
2019-01-21T08:57:12.989Z,9.30
2019-01-21T09:01:30.378Z,10.20
2019-01-21T09:08:23.098Z,10.90
2019-01-21T09:12:42.334Z,13.23
2019-01-21T09:17:58.791Z,11.00
2019-01-21T09:22:18.394Z,11.60
2019-01-21T09:26:46.673Z,9.80
2019-01-21T09:31:16.109Z,11.20
2019-01-21T09:35:33.281Z,11.07
2019-01-21T09:39:50.666Z,9.63
2019-01-21T09:44:07.543Z,12.47
2019-01-21T09:48:14.709Z,13.87
2019-01-21T09:52:22.825Z,12.87
2019-01-21T09:56:31.660Z,16.50
2019-01-21T10:00:39.772Z,16.03
2019-01-21T10:04:54.399Z,14.03
2019-01-21T10:09:22.349Z,13.53
2019-01-21T10:14:13.392Z,12.80
2019-01-21T10:20:39.338Z,10.63
2019-01-21T10:26:00.643Z,13.20
2019-01-21T10:30:19.231Z,11.27
2019-01-21T10:34:37.594Z,13.37
2019-01-21T10:41:02.099Z,11.27
2019-01-21T10:45:20.864Z,10.10
2019-01-21T10:51:43.578Z,10.80
2019-01-21T10:56:33.678Z,11.60
2019-01-21T11:00:51.897Z,17.20
2019-01-21T11:05:19.486Z,19.50
2019-01-21T11:09:35.351Z,15.10
2019-01-21T11:14:13.814Z,15.53
2019-01-21T11:18:37.767Z,11.03
2019-01-21T11:22:53.965Z,9.70
2019-01-21T11:27:20.269Z,8.43
2019-01-21T11:31:36.314Z,8.83
2019-01-21T11:35:58.412Z,10.10
2019-01-21T11:40:25.380Z,9.20
2019-01-21T11:45:45.105Z,10.30
2019-01-21T11:50:02.345Z,7.80
2019-01-21T11:55:02.605Z,7.17
2019-01-21T12:00:19.403Z,7.53
2019-01-21T12:04:37.565Z,8.57
2019-01-21T12:10:59.189Z,7.50
2019-01-21T12:15:21.755Z,6.90
2019-01-21T12:19:41.221Z,5.83
2019-01-21T12:23:57.991Z,6.53
2019-01-21T12:30:26.661Z,16.50
2019-01-21T12:34:44.598Z,8.23
2019-01-21T12:41:23.269Z,12.13
2019-01-21T12:45:41.842Z,18.40
2019-01-21T12:50:31.289Z,25.47
2019-01-21T12:54:51.573Z,30.30
2019-01-21T12:59:16.001Z,22.00
2019-01-21T13:03:37.436Z,19.10
2019-01-21T13:08:06.458Z,22.33
2019-01-21T13:12:31.379Z,20.87
2019-01-21T13:16:48.429Z,20.23
2019-01-21T13:21:13.773Z,26.23
2019-01-21T13:25:35.663Z,25.70
2019-01-21T13:30:02.516Z,14.70
2019-01-21T13:35:24.562Z,16.73
2019-01-21T13:39:45.522Z,22.60
2019-01-21T13:44:03.281Z,27.03
2019-01-21T13:48:19.430Z,32.93
2019-01-21T13:54:40.206Z,28.70
2019-01-21T13:58:58.049Z,27.10
2019-01-21T14:03:16.609Z,27.27
2019-01-21T14:09:54.187Z,27.00
2019-01-21T14:14:16.270Z,25.13
2019-01-21T14:19:34.152Z,28.13
2019-01-21T14:23:52.473Z,23.87
2019-01-21T14:29:15.778Z,31.57
2019-01-21T14:33:32.789Z,29.87
2019-01-21T14:38:00.853Z,23.70
2019-01-21T14:42:29.841Z,20.20
2019-01-21T14:46:51.820Z,16.80
2019-01-21T14:51:10.519Z,18.20
2019-01-21T14:55:29.869Z,14.90
2019-01-21T15:00:54.298Z,14.00
2019-01-21T15:05:12.606Z,15.27
2019-01-21T15:10:39.673Z,15.53
2019-01-21T15:17:02.079Z,14.60
2019-01-21T15:21:21.135Z,12.00
2019-01-21T15:25:41.115Z,10.27
2019-01-21T15:30:17.585Z,8.83
2019-01-21T15:35:43.862Z,10.83
2019-01-21T15:40:05.762Z,13.50
2019-01-21T15:46:34.609Z,12.93
2019-01-21T15:50:52.537Z,16.30
2019-01-21T15:55:13.840Z,16.10
2019-01-21T16:00:06.195Z,15.57
2019-01-21T16:06:29.760Z,12.40
2019-01-21T16:11:35.740Z,11.00
2019-01-21T16:15:55.328Z,9.57
2019-01-21T16:20:21.454Z,9.50
2019-01-21T16:24:44.153Z,9.43
2019-01-21T16:29:05.877Z,7.90
2019-01-21T16:36:30.778Z,7.80
2019-01-21T16:40:49.754Z,8.60
2019-01-21T16:44:57.911Z,9.13
2019-01-21T16:49:06.033Z,9.97
2019-01-21T16:53:14.189Z,14.47
2019-01-21T16:57:22.305Z,15.80
2019-01-21T17:01:30.458Z,12.00
2019-01-21T17:05:38.582Z,9.53
2019-01-21T17:09:46.706Z,14.23
2019-01-21T17:13:54.837Z,8.70
2019-01-21T17:18:02.950Z,9.00
2019-01-21T17:22:11.095Z,15.13
2019-01-21T17:26:19.215Z,10.90
2019-01-21T17:30:27.362Z,10.20
2019-01-21T17:34:35.477Z,12.40
2019-01-21T17:38:43.602Z,10.07
2019-01-21T17:42:51.722Z,9.83
2019-01-21T17:46:59.845Z,8.30
2019-01-21T17:51:07.977Z,11.37
2019-01-21T17:55:16.094Z,13.40
2019-01-21T17:59:24.217Z,29.00
2019-01-21T18:03:32.352Z,14.70
2019-01-21T18:07:40.499Z,16.23
2019-01-21T18:11:48.634Z,15.63
2019-01-21T18:15:56.754Z,13.80
2019-01-21T18:20:07.526Z,15.33
2019-01-21T18:24:15.638Z,15.67
2019-01-21T18:28:23.767Z,12.03
2019-01-21T18:32:31.882Z,12.00
2019-01-21T18:36:40.042Z,11.70
2019-01-21T18:40:48.166Z,10.27
2019-01-21T18:44:56.284Z,10.60
2019-01-21T18:49:04.422Z,10.87
2019-01-21T18:53:12.569Z,11.00
2019-01-21T18:57:20.702Z,13.73
2019-01-21T19:01:28.826Z,13.80
2019-01-21T19:05:36.966Z,12.27
2019-01-21T19:09:45.113Z,10.80
2019-01-21T19:13:53.252Z,11.37
2019-01-21T19:18:01.723Z,10.37
2019-01-21T19:22:09.859Z,9.60
2019-01-21T19:26:17.983Z,11.03
2019-01-21T19:30:27.030Z,10.20
2019-01-21T19:34:35.135Z,8.30
2019-01-21T19:38:43.258Z,10.50
2019-01-21T19:42:51.373Z,11.70
2019-01-21T19:46:59.511Z,11.87
2019-01-21T19:51:07.627Z,12.40
2019-01-21T19:55:20.362Z,12.63
2019-01-21T19:59:28.501Z,10.97
2019-01-21T20:03:36.634Z,9.13
2019-01-21T20:07:44.760Z,9.23
2019-01-21T20:11:52.897Z,10.40
2019-01-21T20:16:01.018Z,10.97
2019-01-21T20:20:12.690Z,10.83
2019-01-21T20:24:20.831Z,12.27
2019-01-21T20:28:28.956Z,10.87
2019-01-21T20:32:37.121Z,11.80
2019-01-21T20:36:45.246Z,16.67
2019-01-21T20:40:53.369Z,13.80
2019-01-21T20:45:01.498Z,12.33
2019-01-21T20:49:09.630Z,10.93
2019-01-21T20:53:17.735Z,9.50
2019-01-21T20:57:25.866Z,9.40
2019-01-21T21:01:33.975Z,9.90
2019-01-21T21:05:42.097Z,12.00
2019-01-21T21:09:50.225Z,11.50
2019-01-21T21:13:58.346Z,11.67
2019-01-21T21:18:06.477Z,12.47
2019-01-21T21:22:20.883Z,13.17
2019-01-21T21:26:22.710Z,11.57
2019-01-21T21:30:32.097Z,12.00
2019-01-21T21:34:40.226Z,11.87
2019-01-21T21:38:48.358Z,11.70
2019-01-21T21:42:56.477Z,12.20
2019-01-21T21:47:04.593Z,12.70
2019-01-21T21:51:12.701Z,11.53
2019-01-21T21:55:20.817Z,11.53
2019-01-21T21:59:28.954Z,10.83
2019-01-21T22:03:37.086Z,13.27
2019-01-21T22:07:45.196Z,11.93
2019-01-21T22:11:53.329Z,13.13
2019-01-21T22:16:01.474Z,13.30
2019-01-21T22:20:12.246Z,11.53
2019-01-21T22:24:20.385Z,11.43
2019-01-21T22:28:28.485Z,12.33
2019-01-21T22:32:36.610Z,13.30
2019-01-21T22:36:44.721Z,12.57
2019-01-21T22:40:52.843Z,12.97
2019-01-21T22:45:00.945Z,14.17
2019-01-21T22:49:09.069Z,14.00
2019-01-21T22:53:17.189Z,14.87
2019-01-21T22:57:25.313Z,14.50
2019-01-21T23:01:33.758Z,12.73
2019-01-21T23:05:41.881Z,15.00
2019-01-21T23:09:50.025Z,14.47
2019-01-21T23:13:58.166Z,14.20
2019-01-21T23:18:06.550Z,14.33
2019-01-21T23:22:14.697Z,13.67
2019-01-21T23:26:22.845Z,13.27
2019-01-21T23:30:30.977Z,11.43
2019-01-21T23:34:39.133Z,10.43
2019-01-21T23:38:47.278Z,10.23
2019-01-21T23:42:55.409Z,12.63
2019-01-21T23:47:03.610Z,8.90
2019-01-21T23:51:11.728Z,9.50
2019-01-21T23:55:19.890Z,8.97
2019-01-21T23:59:28.019Z,8.87
